Time;durP1;ratioP1;P1;durP2;ratioP2;P2;SDS_P1;SDS_P2;PMS_P1;PMS_P2;Temp;Humidity;BMP_temperature;BMP_pressure;BME280_temperature;BME280_humidity;BME280_pressure;Samples;Min_cycle;Max_cycle;Signal;HPM_P1;HPM_P2
2022/02/27 00:01:08;;;;;;;9.20;5.63;;;4.80;99.90;;;;;;4888276;29;20893;-80
2022/02/27 00:03:53;;;;;;;9.80;5.13;;;4.70;99.90;;;;;;4888945;29;20400;-79
2022/02/27 00:06:37;;;;;;;8.17;5.97;;;4.70;99.90;;;;;;4887909;29;20434;-80
2022/02/27 00:09:22;;;;;;;6.80;4.40;;;4.70;99.90;;;;;;4888817;29;20398;-80
2022/02/27 00:12:06;;;;;;;5.00;4.47;;;4.60;99.90;;;;;;4889099;29;20748;-81
2022/02/27 00:14:51;;;;;;;7.80;4.23;;;4.60;99.90;;;;;;4888589;29;20394;-79
2022/02/27 00:17:37;;;;;;;12.00;4.37;;;4.60;99.90;;;;;;4888631;29;20474;-81
2022/02/27 00:20:22;;;;;;;6.83;5.20;;;4.50;99.90;;;;;;4888564;29;20402;-81
2022/02/27 00:23:06;;;;;;;5.23;4.57;;;4.60;99.90;;;;;;4888876;29;20420;-81
2022/02/27 00:25:50;;;;;;;6.47;4.70;;;4.60;99.90;;;;;;4888455;29;20402;-79
2022/02/27 00:28:35;;;;;;;6.53;4.33;;;4.60;99.90;;;;;;4889066;29;20469;-82
2022/02/27 00:31:20;;;;;;;8.83;5.07;;;4.40;99.90;;;;;;4889075;29;20410;-81
2022/02/27 00:34:04;;;;;;;7.30;5.57;;;4.30;99.90;;;;;;4887794;29;20381;-81
2022/02/27 00:36:51;;;;;;;14.50;5.63;;;3.90;99.90;;;;;;4900045;29;20494;-82
2022/02/27 00:39:36;;;;;;;7.77;5.63;;;3.80;99.90;;;;;;4887912;29;20398;-81
2022/02/27 00:42:21;;;;;;;6.90;4.50;;;3.70;99.90;;;;;;4888419;29;20393;-81
2022/02/27 00:45:08;;;;;;;5.10;3.40;;;3.30;99.90;;;;;;4899722;29;20725;-81
2022/02/27 00:47:52;;;;;;;7.37;4.80;;;3.00;99.90;;;;;;4887308;29;20558;-81
2022/02/27 00:50:36;;;;;;;7.90;4.87;;;2.60;99.90;;;;;;4900340;29;20368;-81
2022/02/27 00:53:21;;;;;;;7.40;4.60;;;2.40;99.90;;;;;;4888202;29;20411;-81
2022/02/27 00:56:06;;;;;;;7.10;4.60;;;2.60;99.90;;;;;;4887689;29;20558;-81
2022/02/27 00:58:51;;;;;;;8.57;4.40;;;2.60;99.90;;;;;;4887968;29;20739;-80
2022/02/27 01:01:36;;;;;;;10.97;5.00;;;2.80;99.90;;;;;;4888135;29;20390;-81
2022/02/27 01:04:20;;;;;;;5.00;3.53;;;2.70;99.90;;;;;;4888343;29;20412;-81
2022/02/27 01:07:05;;;;;;;16.60;5.20;;;2.80;99.90;;;;;;4888040;29;20462;-79
2022/02/27 01:09:50;;;;;;;5.33;4.27;;;2.70;99.90;;;;;;4886459;29;20486;-81
2022/02/27 01:12:34;;;;;;;10.50;5.27;;;2.60;99.90;;;;;;4890159;29;20376;-80
2022/02/27 01:15:19;;;;;;;9.83;4.63;;;2.60;99.90;;;;;;4907126;29;20447;-79
2022/02/27 01:18:03;;;;;;;7.73;5.17;;;2.60;99.90;;;;;;4886336;29;20469;-80
2022/02/27 01:20:48;;;;;;;10.37;5.17;;;2.60;99.90;;;;;;4888016;29;20360;-81
2022/02/27 01:23:32;;;;;;;13.27;5.20;;;2.80;99.90;;;;;;4888363;29;20387;-81
2022/02/27 01:26:18;;;;;;;12.53;6.23;;;2.90;99.90;;;;;;4887977;29;20514;-81
2022/02/27 01:29:03;;;;;;;12.93;4.47;;;3.20;99.90;;;;;;4899154;29;20479;-81
2022/02/27 01:31:47;;;;;;;9.03;5.40;;;3.30;99.90;;;;;;4887192;29;20394;-81
2022/02/27 01:34:32;;;;;;;11.20;4.67;;;3.40;99.90;;;;;;4887275;29;20418;-81
2022/02/27 01:37:17;;;;;;;6.87;6.47;;;3.50;99.90;;;;;;4887191;29;20420;-81
2022/02/27 01:40:03;;;;;;;6.07;4.93;;;3.40;99.90;;;;;;4886940;29;20450;-81
2022/02/27 01:42:48;;;;;;;5.80;4.63;;;3.50;99.90;;;;;;4886837;29;20368;-80
2022/02/27 01:45:32;;;;;;;13.93;5.83;;;3.50;99.90;;;;;;4886781;29;20394;-81
2022/02/27 01:48:17;;;;;;;5.43;4.50;;;3.50;99.90;;;;;;4890597;29;20420;-81
2022/02/27 01:51:02;;;;;;;8.87;4.80;;;3.50;99.90;;;;;;4903403;29;20397;-82
2022/02/27 01:53:47;;;;;;;9.67;5.00;;;3.50;99.90;;;;;;4890355;29;20433;-81
2022/02/27 01:56:32;;;;;;;17.27;7.47;;;3.40;99.90;;;;;;4902255;29;20942;-80
2022/02/27 01:59:17;;;;;;;8.10;4.50;;;3.50;99.90;;;;;;4889086;29;20368;-81
2022/02/27 02:02:04;;;;;;;7.30;5.30;;;3.40;99.90;;;;;;4890921;29;20394;-81
2022/02/27 02:04:49;;;;;;;11.37;6.30;;;3.30;99.90;;;;;;4889716;29;20785;-82
2022/02/27 02:07:34;;;;;;;6.90;5.70;;;3.40;99.90;;;;;;4891069;29;20438;-81
2022/02/27 02:10:18;;;;;;;5.30;4.80;;;3.00;99.90;;;;;;4890652;29;20421;-81
2022/02/27 02:13:03;;;;;;;13.10;4.50;;;3.10;99.90;;;;;;4890366;29;20397;-81
2022/02/27 02:15:56;;;;;;;10.93;6.10;;;3.30;99.90;;;;;;4890644;29;20812;-81
2022/02/27 02:18:41;;;;;;;16.63;5.83;;;3.30;99.90;;;;;;4890152;29;20393;-81
2022/02/27 02:21:26;;;;;;;14.50;6.87;;;3.40;99.90;;;;;;4890799;29;20459;-81
2022/02/27 02:24:11;;;;;;;6.17;4.30;;;2.70;99.90;;;;;;4890704;29;20390;-81
2022/02/27 02:26:57;;;;;;;6.53;4.27;;;2.80;99.90;;;;;;4902476;29;20447;-81
2022/02/27 02:29:41;;;;;;;8.10;5.50;;;3.00;99.90;;;;;;4890983;29;20390;-80
2022/02/27 02:32:27;;;;;;;7.00;4.07;;;3.10;99.90;;;;;;4890864;29;20513;-82
2022/02/27 02:35:11;;;;;;;9.83;5.43;;;3.20;99.90;;;;;;4907189;29;20440;-81
2022/02/27 02:37:57;;;;;;;9.33;6.27;;;3.20;99.90;;;;;;4907161;29;20425;-80
2022/02/27 02:40:42;;;;;;;10.43;4.43;;;3.30;99.90;;;;;;4895188;29;20394;-80
2022/02/27 02:43:26;;;;;;;10.30;5.43;;;3.40;99.90;;;;;;4895474;29;20365;-81
2022/02/27 02:46:10;;;;;;;8.00;4.33;;;3.40;99.90;;;;;;4892853;29;20388;-81
2022/02/27 02:48:57;;;;;;;4.93;4.03;;;3.50;99.90;;;;;;4894232;29;20398;-80
2022/02/27 02:51:43;;;;;;;9.10;4.83;;;3.40;99.90;;;;;;4895189;29;20403;-78
2022/02/27 02:54:28;;;;;;;7.23;5.77;;;3.40;99.90;;;;;;4895826;29;20488;-81
2022/02/27 02:57:14;;;;;;;8.20;5.00;;;3.40;99.90;;;;;;4895451;29;20994;-80
2022/02/27 02:59:59;;;;;;;7.87;5.83;;;3.20;99.90;;;;;;4908466;29;20411;-78
2022/02/27 03:02:45;;;;;;;5.50;4.70;;;2.60;99.90;;;;;;4897196;29;20702;-78
2022/02/27 03:05:29;;;;;;;14.17;5.57;;;2.40;99.90;;;;;;4896962;29;20426;-78
2022/02/27 03:08:14;;;;;;;11.50;6.23;;;2.70;99.90;;;;;;4909815;29;20394;-78
2022/02/27 03:10:59;;;;;;;7.73;4.07;;;2.60;99.90;;;;;;4896861;29;20801;-78
2022/02/27 03:13:43;;;;;;;11.27;5.87;;;2.90;99.90;;;;;;4896812;29;20369;-78
2022/02/27 03:16:30;;;;;;;6.97;5.20;;;3.10;99.90;;;;;;4894636;29;20420;-78
2022/02/27 03:19:14;;;;;;;13.67;6.17;;;3.10;99.90;;;;;;4894621;29;20397;-79
2022/02/27 03:21:58;;;;;;;6.40;4.80;;;3.20;99.90;;;;;;4893675;29;20389;-80
2022/02/27 03:24:43;;;;;;;10.30;5.27;;;3.20;99.90;;;;;;4890053;29;20395;-80
2022/02/27 03:27:27;;;;;;;20.93;5.87;;;3.20;99.90;;;;;;4888388;29;20368;-81
2022/02/27 03:30:11;;;;;;;7.60;3.93;;;3.20;99.90;;;;;;4889585;29;20461;-81
2022/02/27 03:32:56;;;;;;;9.67;6.30;;;3.10;99.90;;;;;;4888763;29;20410;-79
2022/02/27 03:35:41;;;;;;;6.63;5.00;;;3.20;99.90;;;;;;4889133;29;20505;-80
2022/02/27 03:38:25;;;;;;;12.67;5.60;;;3.20;99.90;;;;;;4901262;29;20445;-80
2022/02/27 03:41:09;;;;;;;10.10;6.20;;;3.20;99.90;;;;;;4887775;29;20805;-81
2022/02/27 03:43:54;;;;;;;9.33;5.60;;;3.20;99.90;;;;;;4888860;29;20429;-81
2022/02/27 03:46:39;;;;;;;11.00;6.07;;;3.20;99.90;;;;;;4889598;29;20413;-80
2022/02/27 03:49:24;;;;;;;15.70;4.83;;;3.20;99.90;;;;;;4888990;29;20414;-81
2022/02/27 03:52:08;;;;;;;7.57;4.77;;;3.20;99.90;;;;;;4888593;29;20417;-81
2022/02/27 03:54:53;;;;;;;6.07;5.03;;;3.20;99.90;;;;;;4888247;29;21011;-80
2022/02/27 03:57:38;;;;;;;14.27;5.60;;;3.20;99.90;;;;;;4888425;29;20449;-80
2022/02/27 04:00:24;;;;;;;9.40;6.10;;;3.20;99.90;;;;;;4888489;29;20827;-81
2022/02/27 04:03:10;;;;;;;9.03;4.73;;;3.20;99.90;;;;;;4888558;29;20398;-81
2022/02/27 04:05:54;;;;;;;8.00;4.70;;;3.20;99.90;;;;;;4901012;29;20380;-81
2022/02/27 04:08:39;;;;;;;8.10;5.30;;;3.20;99.90;;;;;;4888064;29;20377;-80
2022/02/27 04:11:24;;;;;;;17.13;5.00;;;3.10;99.90;;;;;;4888373;29;20952;-81
2022/02/27 04:14:08;;;;;;;6.07;5.10;;;3.10;99.90;;;;;;4894207;29;20384;-79
2022/02/27 04:16:53;;;;;;;7.87;5.33;;;3.10;99.90;;;;;;4895506;29;20981;-81
2022/02/27 04:19:38;;;;;;;12.53;5.53;;;3.10;99.90;;;;;;4889157;29;20793;-81
2022/02/27 04:22:22;;;;;;;11.87;5.40;;;3.10;99.90;;;;;;4887966;29;20878;-80
2022/02/27 04:25:07;;;;;;;12.20;5.60;;;3.10;99.90;;;;;;4888865;29;20386;-81
2022/02/27 04:27:53;;;;;;;10.50;5.37;;;3.10;99.90;;;;;;4900816;29;20419;-81
2022/02/27 04:30:38;;;;;;;9.37;5.00;;;3.20;99.90;;;;;;4891671;29;20401;-81
2022/02/27 04:33:23;;;;;;;7.20;5.30;;;3.20;99.90;;;;;;4889146;29;20368;-81
2022/02/27 04:36:08;;;;;;;8.90;4.63;;;3.20;99.90;;;;;;4891487;29;20423;-79
2022/02/27 04:38:53;;;;;;;9.60;6.50;;;3.20;99.90;;;;;;4897616;29;20389;-78
2022/02/27 04:41:40;;;;;;;7.17;4.83;;;3.20;99.90;;;;;;4897365;29;20917;-78
2022/02/27 04:44:25;;;;;;;13.67;8.10;;;3.20;99.90;;;;;;4909657;29;20413;-78
2022/02/27 04:47:10;;;;;;;7.67;5.57;;;3.20;99.90;;;;;;4873403;29;20438;-81
2022/02/27 04:49:54;;;;;;;27.73;6.93;;;3.20;99.90;;;;;;4869278;29;20497;-81
2022/02/27 04:52:38;;;;;;;6.57;4.90;;;3.20;99.90;;;;;;4868784;29;20615;-81
2022/02/27 04:55:24;;;;;;;6.97;4.97;;;3.10;99.90;;;;;;4869193;29;20425;-81
2022/02/27 04:58:08;;;;;;;14.10;6.83;;;3.10;99.90;;;;;;4869225;29;20926;-78
2022/02/27 05:00:53;;;;;;;8.67;5.83;;;3.10;99.90;;;;;;4868986;29;20364;-81
2022/02/27 05:03:37;;;;;;;11.80;5.97;;;3.00;99.90;;;;;;4868932;29;20414;-80
2022/02/27 05:06:22;;;;;;;16.13;6.17;;;3.00;99.90;;;;;;4885785;29;20402;-78
2022/02/27 05:09:07;;;;;;;33.63;10.13;;;2.90;99.90;;;;;;4873986;29;20424;-80
2022/02/27 05:11:51;;;;;;;12.60;6.70;;;2.90;99.90;;;;;;4873941;29;20412;-79
2022/02/27 05:14:35;;;;;;;13.93;5.73;;;2.90;99.90;;;;;;4872019;29;20446;-81
2022/02/27 05:17:20;;;;;;;14.03;7.90;;;2.90;99.90;;;;;;4869653;29;20465;-80
2022/02/27 05:20:06;;;;;;;12.33;7.97;;;2.90;99.90;;;;;;4869264;29;20471;-80
2022/02/27 05:22:51;;;;;;;7.70;5.93;;;2.90;99.90;;;;;;4872745;29;20426;-80
2022/02/27 05:25:35;;;;;;;12.17;5.87;;;3.00;99.90;;;;;;4871179;29;20804;-80
2022/02/27 05:28:20;;;;;;;9.97;4.17;;;3.00;99.90;;;;;;4872955;29;20426;-79
2022/02/27 05:31:04;;;;;;;9.67;4.47;;;3.00;99.90;;;;;;4845696;29;20915;-80
2022/02/27 05:33:49;;;;;;;10.93;5.90;;;2.90;99.90;;;;;;4872904;29;20395;-80
2022/02/27 05:36:34;;;;;;;9.33;5.30;;;2.80;99.90;;;;;;4872473;29;20492;-80
2022/02/27 05:39:19;;;;;;;7.33;4.87;;;2.80;99.90;;;;;;4872765;29;20869;-81
2022/02/27 05:42:04;;;;;;;22.40;6.67;;;2.80;99.90;;;;;;4871908;29;20407;-80
2022/02/27 05:44:49;;;;;;;9.73;7.40;;;2.80;99.90;;;;;;4872858;29;20413;-80
2022/02/27 05:47:33;;;;;;;13.73;6.17;;;2.80;99.90;;;;;;4871759;29;20454;-80
2022/02/27 05:50:18;;;;;;;7.97;5.37;;;2.80;99.90;;;;;;4872578;29;20407;-80
2022/02/27 05:53:02;;;;;;;9.23;8.23;;;2.60;99.90;;;;;;4871566;29;20388;-80
2022/02/27 05:55:56;;;;;;;10.93;5.20;;;2.60;99.90;;;;;;4884034;29;20482;-80
2022/02/27 05:58:40;;;;;;;31.73;15.23;;;2.70;99.90;;;;;;4871028;29;20887;-80
2022/02/27 06:01:25;;;;;;;10.50;5.40;;;2.70;99.90;;;;;;4872325;29;20443;-80
2022/02/27 06:04:09;;;;;;;14.20;5.27;;;2.70;99.90;;;;;;4872296;29;20377;-80
2022/02/27 06:06:53;;;;;;;10.00;5.20;;;2.80;99.90;;;;;;4872170;29;20467;-80
2022/02/27 06:09:38;;;;;;;9.33;5.90;;;2.80;99.90;;;;;;4884181;29;20448;-80
2022/02/27 06:12:22;;;;;;;16.60;5.90;;;2.80;99.90;;;;;;4871848;29;20369;-81
2022/02/27 06:15:07;;;;;;;9.67;5.70;;;2.80;99.90;;;;;;4858310;29;20455;-80
2022/02/27 06:17:52;;;;;;;6.10;4.20;;;2.90;99.90;;;;;;4872080;29;20495;-80
2022/02/27 06:20:37;;;;;;;8.70;4.90;;;2.90;99.90;;;;;;4872223;29;20399;-80
2022/02/27 06:23:21;;;;;;;14.27;5.50;;;2.70;99.90;;;;;;4872710;29;20775;-78
2022/02/27 06:26:05;;;;;;;6.57;5.90;;;2.30;99.90;;;;;;4872188;29;20502;-81
2022/02/27 06:28:50;;;;;;;13.60;5.63;;;2.00;99.90;;;;;;4871878;29;20403;-80
2022/02/27 06:31:35;;;;;;;11.70;5.87;;;2.00;99.90;;;;;;4872008;29;20374;-80
2022/02/27 06:34:19;;;;;;;6.87;5.20;;;2.10;99.90;;;;;;4871664;29;20418;-79
2022/02/27 06:37:03;;;;;;;10.43;4.80;;;2.30;99.90;;;;;;4871724;29;20421;-80
2022/02/27 06:39:48;;;;;;;8.73;4.20;;;2.60;99.90;;;;;;4871194;29;20403;-79
2022/02/27 06:42:32;;;;;;;5.23;4.50;;;2.70;99.90;;;;;;4871397;29;20407;-81
2022/02/27 06:45:18;;;;;;;8.53;4.60;;;2.90;99.90;;;;;;4871005;29;20555;-81
2022/02/27 06:48:02;;;;;;;5.23;4.00;;;2.90;99.90;;;;;;4871244;29;20479;-81
2022/02/27 06:50:47;;;;;;;12.43;3.97;;;3.00;99.90;;;;;;4871104;29;20455;-82
2022/02/27 06:53:32;;;;;;;9.07;4.63;;;3.10;99.90;;;;;;4871150;29;20440;-81
2022/02/27 06:56:16;;;;;;;7.30;4.37;;;3.20;99.90;;;;;;4871419;29;20478;-82
2022/02/27 06:59:01;;;;;;;10.23;4.03;;;3.20;99.90;;;;;;4870752;29;20400;-81
2022/02/27 07:01:45;;;;;;;11.57;5.23;;;3.00;99.90;;;;;;4871556;29;20377;-81
2022/02/27 07:04:29;;;;;;;6.73;5.63;;;3.00;99.90;;;;;;4871186;29;20449;-80
2022/02/27 07:07:13;;;;;;;34.47;5.53;;;3.00;99.90;;;;;;4872812;29;20411;-81
2022/02/27 07:10:00;;;;;;;6.87;4.83;;;3.10;99.90;;;;;;4872428;29;20400;-80
2022/02/27 07:12:47;;;;;;;8.90;5.50;;;3.20;99.90;;;;;;4871738;29;20411;-80
2022/02/27 07:15:32;;;;;;;9.80;6.27;;;3.40;99.90;;;;;;4873672;29;20452;-78
2022/02/27 07:18:16;;;;;;;6.43;4.20;;;3.40;99.90;;;;;;4877863;29;20498;-80
2022/02/27 07:21:01;;;;;;;5.63;4.10;;;3.50;99.90;;;;;;4870732;29;20417;-80
2022/02/27 07:23:46;;;;;;;6.67;4.40;;;3.50;99.90;;;;;;4871005;29;20406;-80
2022/02/27 07:26:30;;;;;;;10.20;5.33;;;3.40;99.90;;;;;;4870631;29;20495;-81
2022/02/27 07:29:15;;;;;;;7.80;4.93;;;3.50;99.90;;;;;;4870364;29;20369;-81
2022/02/27 07:32:00;;;;;;;7.50;4.87;;;3.40;99.90;;;;;;4857076;29;20472;-81
2022/02/27 07:34:44;;;;;;;5.03;4.50;;;3.50;99.90;;;;;;4870321;29;20399;-82
2022/02/27 07:37:30;;;;;;;9.30;5.17;;;3.60;99.90;;;;;;4869954;29;20580;-80
2022/02/27 07:40:14;;;;;;;11.67;5.47;;;3.70;99.90;;;;;;4870412;29;20798;-80
2022/02/27 07:42:59;;;;;;;4.17;3.77;;;3.80;99.90;;;;;;4870618;29;20833;-81
2022/02/27 07:45:44;;;;;;;5.00;4.00;;;3.70;99.90;;;;;;4870167;29;20920;-79
2022/02/27 07:48:29;;;;;;;6.87;6.17;;;3.50;99.90;;;;;;4870111;29;20391;-80
2022/02/27 07:51:14;;;;;;;15.10;5.10;;;3.80;99.90;;;;;;4869421;29;20431;-80
2022/02/27 07:53:59;;;;;;;4.67;4.27;;;3.80;99.90;;;;;;4869111;29;20395;-80
2022/02/27 07:56:44;;;;;;;18.23;5.33;;;3.80;99.90;;;;;;4868398;29;20482;-80
2022/02/27 07:59:28;;;;;;;10.90;3.97;;;4.00;99.90;;;;;;4870256;29;20405;-80
2022/02/27 08:02:13;;;;;;;4.37;3.57;;;3.90;99.90;;;;;;4872654;29;20486;-80
2022/02/27 08:04:57;;;;;;;9.63;5.63;;;3.90;99.90;;;;;;4869215;29;20374;-81
2022/02/27 08:07:42;;;;;;;5.17;3.83;;;4.00;99.90;;;;;;4868976;29;20523;-80
2022/02/27 08:10:27;;;;;;;8.53;5.93;;;4.10;99.90;;;;;;4869770;29;20424;-81
2022/02/27 08:13:12;;;;;;;5.40;3.97;;;4.40;99.90;;;;;;4869896;29;20444;-80
2022/02/27 08:15:58;;;;;;;8.90;4.00;;;4.50;99.90;;;;;;4869344;29;20586;-80
2022/02/27 08:18:42;;;;;;;5.27;4.60;;;4.40;99.90;;;;;;4868869;29;20424;-79
2022/02/27 08:21:26;;;;;;;6.20;5.00;;;4.30;99.90;;;;;;4869262;29;20448;-81
2022/02/27 08:24:11;;;;;;;5.67;3.93;;;4.60;99.90;;;;;;4870332;29;20410;-81
2022/02/27 08:26:56;;;;;;;7.50;4.17;;;4.50;99.90;;;;;;4869606;29;20471;-81
2022/02/27 08:29:42;;;;;;;7.17;3.63;;;4.60;99.90;;;;;;4869661;29;20402;-81
2022/02/27 08:32:26;;;;;;;5.57;4.03;;;4.60;99.90;;;;;;4870316;29;20428;-79
2022/02/27 08:35:11;;;;;;;8.80;4.63;;;4.80;99.90;;;;;;4869039;29;20406;-81
2022/02/27 08:37:56;;;;;;;7.20;3.83;;;4.90;99.90;;;;;;4854135;29;20502;-81
2022/02/27 08:40:40;;;;;;;4.33;3.50;;;4.90;99.90;;;;;;4869188;29;20448;-81
2022/02/27 08:43:25;;;;;;;4.97;2.90;;;5.00;99.90;;;;;;4869101;29;20403;-80
2022/02/27 08:46:10;;;;;;;10.83;4.30;;;5.20;99.90;;;;;;4868939;29;20483;-81
2022/02/27 08:48:55;;;;;;;8.13;3.93;;;6.00;99.90;;;;;;4867444;29;20418;-81
2022/02/27 08:51:45;;;;;;;3.50;3.20;;;5.90;99.90;;;;;;4867822;29;20403;-81
2022/02/27 08:54:30;;;;;;;6.63;4.80;;;6.40;99.90;;;;;;4867236;29;20494;-80
2022/02/27 08:57:14;;;;;;;5.10;3.57;;;6.70;99.90;;;;;;4866314;29;20579;-80
2022/02/27 08:59:58;;;;;;;5.20;2.80;;;6.80;99.90;;;;;;4866684;29;20452;-80
2022/02/27 09:02:44;;;;;;;4.67;3.47;;;6.60;99.90;;;;;;4869050;29;20476;-81
2022/02/27 09:05:29;;;;;;;6.57;3.80;;;6.70;99.90;;;;;;4869022;29;20430;-80
2022/02/27 09:08:13;;;;;;;8.93;3.80;;;6.90;99.90;;;;;;4869640;29;20487;-80
2022/02/27 09:10:58;;;;;;;5.87;3.13;;;7.40;99.90;;;;;;4869773;29;20429;-81
2022/02/27 09:13:43;;;;;;;12.50;4.20;;;7.00;99.90;;;;;;4869010;29;20482;-80
2022/02/27 09:16:27;;;;;;;4.23;3.03;;;6.70;99.90;;;;;;4869933;29;21012;-81
2022/02/27 09:19:12;;;;;;;10.90;2.97;;;6.50;99.90;;;;;;4870058;29;20399;-81
2022/02/27 09:21:57;;;;;;;7.93;3.70;;;7.10;99.90;;;;;;4868367;29;20456;-81
2022/02/27 09:24:41;;;;;;;6.10;3.53;;;7.20;99.90;;;;;;4868774;29;20399;-80
2022/02/27 09:27:26;;;;;;;3.47;2.60;;;7.50;99.90;;;;;;4869124;29;20426;-79
2022/02/27 09:30:12;;;;;;;7.10;3.97;;;7.70;99.90;;;;;;4868330;29;20410;-81
2022/02/27 09:32:57;;;;;;;4.20;2.73;;;7.70;99.90;;;;;;4868768;29;20426;-80
2022/02/27 09:35:42;;;;;;;4.67;3.20;;;8.00;99.90;;;;;;4868568;29;20428;-81
2022/02/27 09:38:26;;;;;;;3.50;2.90;;;8.20;99.90;;;;;;4869288;29;20431;-81
2022/02/27 09:41:12;;;;;;;4.37;3.07;;;8.50;99.90;;;;;;4869418;29;20416;-81
2022/02/27 09:43:59;;;;;;;6.17;3.00;;;7.50;99.90;;;;;;4869963;29;20924;-81
2022/02/27 09:46:48;;;;;;;5.87;3.00;;;7.60;99.90;;;;;;4869250;29;20419;-81
2022/02/27 09:49:33;;;;;;;9.23;2.97;;;7.60;99.90;;;;;;4868414;29;20424;-81
2022/02/27 09:52:19;;;;;;;4.67;2.77;;;7.50;99.90;;;;;;4868595;29;20376;-80
2022/02/27 09:55:04;;;;;;;2.73;2.50;;;7.70;99.90;;;;;;4869297;29;20784;-80
2022/02/27 09:57:49;;;;;;;3.93;3.23;;;7.40;99.90;;;;;;4869125;29;20482;-81
2022/02/27 10:00:34;;;;;;;5.03;2.83;;;6.80;99.90;;;;;;4867925;29;20395;-81
2022/02/27 10:03:27;;;;;;;9.40;3.17;;;7.20;99.90;;;;;;4869126;29;20407;-81
2022/02/27 10:06:13;;;;;;;4.55;3.10;;;7.10;99.90;;;;;;4868215;29;20424;-80
2022/02/27 10:08:57;;;;;;;3.70;2.90;;;6.50;99.90;;;;;;4873776;29;20186;-81
2022/02/27 10:11:41;;;;;;;7.83;4.30;;;7.10;99.90;;;;;;4873374;29;20826;-81
2022/02/27 10:14:27;;;;;;;5.17;3.00;;;10.10;99.90;;;;;;4885576;29;20459;-81
2022/02/27 10:17:12;;;;;;;3.67;3.20;;;9.70;99.90;;;;;;4872464;29;20479;-80
2022/02/27 10:19:57;;;;;;;4.03;2.70;;;10.70;99.90;;;;;;4873661;29;20419;-81
2022/02/27 10:22:45;;;;;;;3.30;2.53;;;9.20;99.90;;;;;;4873032;29;20428;-81
2022/02/27 10:25:30;;;;;;;5.90;3.70;;;9.40;99.90;;;;;;4873166;29;20399;-81
2022/02/27 10:28:19;;;;;;;5.20;2.40;;;9.70;99.90;;;;;;4872600;29;20961;-81
2022/02/27 10:31:10;;;;;;;5.03;3.80;;;8.70;99.90;;;;;;4884913;29;20403;-80
2022/02/27 10:34:11;;;;;;;5.40;3.70;;;9.10;99.90;;;;;;4872279;29;20471;-81
2022/02/27 10:37:09;;;;;;;4.57;2.70;;;9.90;99.90;;;;;;4884007;29;20459;-81
2022/02/27 10:39:55;;;;;;;4.07;3.20;;;9.10;98.90;;;;;;4872740;29;20436;-81
2022/02/27 10:42:39;;;;;;;4.97;3.90;;;8.00;99.90;;;;;;4871605;29;20395;-81
2022/02/27 10:45:24;;;;;;;5.30;3.50;;;7.20;99.90;;;;;;4871787;29;20719;-81
2022/02/27 10:48:19;;;;;;;4.30;3.13;;;6.90;99.90;;;;;;4857626;29;20965;-80
2022/02/27 10:51:11;;;;;;;7.83;3.83;;;7.10;99.90;;;;;;4867616;29;20385;-80
2022/02/27 10:53:56;;;;;;;7.43;4.20;;;6.60;99.90;;;;;;4857450;29;20870;-80
2022/02/27 10:56:42;;;;;;;4.40;3.43;;;6.60;99.90;;;;;;4873370;29;21006;-81
2022/02/27 10:59:27;;;;;;;3.53;2.63;;;6.80;99.90;;;;;;4872103;29;20423;-80
2022/02/27 11:02:12;;;;;;;8.93;3.23;;;7.40;99.90;;;;;;4858426;29;20411;-80
2022/02/27 11:05:02;;;;;;;7.67;3.30;;;7.50;99.90;;;;;;4870920;29;20434;-80
2022/02/27 11:07:50;;;;;;;5.53;3.33;;;7.30;99.90;;;;;;4871180;29;20395;-81
2022/02/27 11:10:37;;;;;;;7.50;2.60;;;7.60;99.90;;;;;;4871757;29;20398;-81
2022/02/27 11:13:23;;;;;;;6.28;3.90;;;8.50;99.90;;;;;;4871299;29;20433;-81
2022/02/27 11:16:08;;;;;;;15.13;4.13;;;8.20;99.90;;;;;;4870086;29;20201;-78
2022/02/27 11:18:53;;;;;;;7.50;4.17;;;9.10;99.90;;;;;;4868339;29;20419;-79
2022/02/27 11:21:37;;;;;;;8.70;5.37;;;10.50;99.90;;;;;;4868270;29;20416;-78
2022/02/27 11:24:23;;;;;;;4.40;2.90;;;10.90;95.90;;;;;;4867381;29;20399;-80
2022/02/27 11:27:08;;;;;;;9.50;3.67;;;10.80;93.80;;;;;;4869836;29;20398;-79
2022/02/27 11:29:54;;;;;;;5.70;3.57;;;10.40;93.90;;;;;;4868570;29;20425;-80
2022/02/27 11:32:50;;;;;;;4.03;3.30;;;10.00;93.50;;;;;;4868626;29;20579;-79
2022/02/27 11:35:41;;;;;;;4.73;3.63;;;10.30;94.30;;;;;;4854345;29;20848;-81
2022/02/27 11:38:38;;;;;;;5.47;3.60;;;9.60;95.00;;;;;;4869178;29;20407;-81
2022/02/27 11:41:22;;;;;;;3.50;2.90;;;12.40;91.70;;;;;;4856647;29;20395;-81
2022/02/27 11:44:13;;;;;;;6.27;3.80;;;12.40;86.40;;;;;;4868821;29;20450;-81
2022/02/27 11:47:13;;;;;;;3.53;3.23;;;12.80;84.40;;;;;;4870090;29;20451;-80
2022/02/27 11:50:35;;;;;;;11.83;7.30;;;12.20;84.60;;;;;;4869352;29;20428;-80
2022/02/27 11:53:21;;;;;;;7.00;3.60;;;11.70;84.60;;;;;;4870639;29;20388;-81
2022/02/27 11:56:06;;;;;;;8.07;3.60;;;12.50;87.80;;;;;;4882268;29;21020;-81
2022/02/27 11:58:50;;;;;;;6.33;3.73;;;11.80;86.70;;;;;;4870397;29;20394;-81
2022/02/27 12:01:57;;;;;;;4.60;3.80;;;11.90;88.90;;;;;;4882145;29;20408;-81
2022/02/27 12:04:50;;;;;;;3.77;3.50;;;10.60;82.60;;;;;;4882070;29;20392;-81
2022/02/27 12:08:05;;;;;;;5.83;3.70;;;11.80;85.40;;;;;;4870189;29;20884;-80
2022/02/27 12:10:52;;;;;;;6.03;3.37;;;10.80;83.70;;;;;;4869182;29;20435;-82
2022/02/27 12:13:50;;;;;;;4.90;4.00;;;12.20;84.10;;;;;;4869896;29;20416;-81
2022/02/27 12:16:41;;;;;;;4.30;3.90;;;13.40;81.10;;;;;;4869702;29;20449;-81
2022/02/27 12:19:30;;;;;;;4.57;3.87;;;13.00;80.70;;;;;;4870268;29;20395;-81
2022/02/27 12:22:42;;;;;;;6.83;4.47;;;11.90;82.90;;;;;;4868174;29;20739;-80
2022/02/27 12:25:42;;;;;;;5.13;4.10;;;12.90;85.80;;;;;;4868086;29;20439;-81
2022/02/27 12:28:54;;;;;;;4.17;3.27;;;14.10;81.20;;;;;;4868903;29;20692;-81
2022/02/27 12:31:40;;;;;;;6.50;4.03;;;14.70;78.80;;;;;;4869899;29;20447;-81
2022/02/27 12:34:25;;;;;;;5.57;4.20;;;13.90;76.90;;;;;;4870060;29;20444;-82
2022/02/27 12:37:12;;;;;;;11.63;4.10;;;12.30;74.20;;;;;;4871701;29;20454;-80
2022/02/27 12:39:57;;;;;;;4.40;4.00;;;12.00;80.10;;;;;;4868472;29;20440;-80
2022/02/27 12:42:41;;;;;;;6.60;3.83;;;13.80;78.20;;;;;;4868971;29;20884;-81
2022/02/27 12:45:30;;;;;;;5.10;3.60;;;13.20;77.20;;;;;;4869043;29;20452;-80
2022/02/27 12:48:16;;;;;;;3.47;3.17;;;12.20;76.00;;;;;;4867904;29;20411;-81
2022/02/27 12:51:01;;;;;;;4.83;3.43;;;13.10;76.00;;;;;;4870653;29;20493;-79
2022/02/27 12:54:05;;;;;;;6.17;4.17;;;12.40;73.80;;;;;;4871050;29;20418;-81
2022/02/27 12:56:55;;;;;;;3.73;3.43;;;12.10;73.00;;;;;;4851309;29;20546;-79
2022/02/27 12:59:41;;;;;;;3.30;2.83;;;11.90;72.10;;;;;;4850723;29;20404;-79
2022/02/27 13:02:28;;;;;;;3.50;3.20;;;12.30;71.20;;;;;;4849651;29;20472;-80
2022/02/27 13:05:15;;;;;;;4.70;3.30;;;10.60;72.60;;;;;;4849911;29;20533;-81
2022/02/27 13:08:02;;;;;;;5.13;3.90;;;10.80;74.00;;;;;;4849270;29;20416;-81
2022/02/27 13:10:47;;;;;;;8.60;3.97;;;12.40;76.50;;;;;;4849225;29;20469;-82
2022/02/27 13:13:38;;;;;;;3.60;3.10;;;13.00;71.40;;;;;;4836638;29;20485;-81
2022/02/27 13:16:25;;;;;;;4.03;2.77;;;13.70;69.10;;;;;;4850855;29;20479;-81
2022/02/27 13:19:10;;;;;;;4.53;4.07;;;14.40;72.50;;;;;;4851874;29;20706;-79
2022/02/27 13:21:54;;;;;;;6.40;3.90;;;14.90;71.60;;;;;;4853548;29;20412;-78
2022/02/27 13:24:43;;;;;;;3.83;3.33;;;16.60;66.80;;;;;;4840450;29;20437;-79
2022/02/27 13:27:34;;;;;;;5.07;3.30;;;17.20;62.40;;;;;;4855007;29;20514;-80
2022/02/27 13:30:22;;;;;;;3.20;2.90;;;16.00;59.90;;;;;;4856197;29;20416;-79
2022/02/27 13:33:06;;;;;;;6.10;3.70;;;14.20;61.10;;;;;;4857110;29;20399;-79
2022/02/27 13:35:51;;;;;;;3.90;3.50;;;13.50;62.00;;;;;;4857680;29;20408;-78
2022/02/27 13:38:35;;;;;;;3.70;3.40;;;13.70;62.70;;;;;;4856531;29;20424;-80
2022/02/27 13:41:30;;;;;;;3.20;2.90;;;13.20;64.80;;;;;;4858621;29;20404;-79
2022/02/27 13:44:14;;;;;;;4.93;3.50;;;13.10;63.00;;;;;;4888050;29;20390;-78
2022/02/27 13:46:59;;;;;;;4.00;3.57;;;14.80;65.80;;;;;;4863127;29;20411;-79
2022/02/27 13:49:44;;;;;;;4.43;4.03;;;13.40;64.20;;;;;;4861628;29;20413;-80
2022/02/27 13:52:34;;;;;;;4.97;3.93;;;13.20;64.80;;;;;;4887926;29;20427;-78
2022/02/27 13:55:22;;;;;;;6.40;4.77;;;13.70;66.50;;;;;;4861596;29;20776;-79
2022/02/27 13:58:12;;;;;;;5.07;3.37;;;14.20;66.30;;;;;;4873692;29;20519;-80
2022/02/27 14:01:00;;;;;;;7.80;4.60;;;13.10;62.90;;;;;;4859693;29;20407;-79
2022/02/27 14:03:46;;;;;;;4.20;3.30;;;12.20;67.80;;;;;;4857174;29;20403;-80
2022/02/27 14:06:33;;;;;;;4.90;4.40;;;11.30;69.00;;;;;;4853325;29;20422;-82
2022/02/27 14:09:17;;;;;;;7.10;4.00;;;11.00;71.50;;;;;;4851725;29;20426;-80
2022/02/27 14:12:04;;;;;;;5.10;4.57;;;11.60;72.70;;;;;;4877651;29;20483;-81
2022/02/27 14:14:50;;;;;;;4.93;3.70;;;11.20;71.00;;;;;;4850164;29;20492;-82
2022/02/27 14:17:43;;;;;;;4.27;3.87;;;11.10;71.50;;;;;;4862294;29;20466;-82
2022/02/27 14:20:32;;;;;;;4.50;4.10;;;10.70;74.50;;;;;;4849268;29;20479;-82
2022/02/27 14:23:17;;;;;;;8.30;4.40;;;10.00;74.10;;;;;;4875875;29;20518;-81
2022/02/27 14:26:02;;;;;;;4.03;3.73;;;10.20;77.10;;;;;;4862219;29;20545;-79
2022/02/27 14:28:48;;;;;;;6.87;3.90;;;10.60;75.90;;;;;;4850046;29;20392;-80
2022/02/27 14:31:36;;;;;;;5.17;3.27;;;11.10;71.00;;;;;;4849259;29;20453;-80